sensor_id;sensor_type;location;lat;lon;timestamp;P1;durP1;ratioP1;P2;durP2;ratioP2
12476;SDS011;6303;51.504;6.300;2023-04-03T00:02:08;1.40;;;1.30;;
12476;SDS011;6303;51.504;6.300;2023-04-03T00:04:35;1.65;;;1.40;;
12476;SDS011;6303;51.504;6.300;2023-04-03T00:07:02;1.40;;;1.30;;
12476;SDS011;6303;51.504;6.300;2023-04-03T00:09:30;1.30;;;1.20;;
12476;SDS011;6303;51.504;6.300;2023-04-03T00:11:57;1.58;;;1.48;;
12476;SDS011;6303;51.504;6.300;2023-04-03T00:14:25;1.40;;;1.30;;
12476;SDS011;6303;51.504;6.300;2023-04-03T00:16:53;1.52;;;1.42;;
12476;SDS011;6303;51.504;6.300;2023-04-03T00:19:20;1.30;;;1.20;;
12476;SDS011;6303;51.504;6.300;2023-04-03T00:21:47;1.42;;;1.33;;
12476;SDS011;6303;51.504;6.300;2023-04-03T00:24:14;1.55;;;1.45;;
12476;SDS011;6303;51.504;6.300;2023-04-03T00:26:42;1.50;;;1.40;;
12476;SDS011;6303;51.504;6.300;2023-04-03T00:29:09;1.67;;;1.58;;
12476;SDS011;6303;51.504;6.300;2023-04-03T00:31:37;1.42;;;1.33;;
12476;SDS011;6303;51.504;6.300;2023-04-03T00:34:04;1.45;;;1.35;;
12476;SDS011;6303;51.504;6.300;2023-04-03T00:36:31;1.40;;;1.35;;
12476;SDS011;6303;51.504;6.300;2023-04-03T00:38:58;1.67;;;1.58;;
12476;SDS011;6303;51.504;6.300;2023-04-03T00:41:25;1.50;;;1.30;;
12476;SDS011;6303;51.504;6.300;2023-04-03T00:43:53;1.70;;;1.60;;
12476;SDS011;6303;51.504;6.300;2023-04-03T00:46:21;1.63;;;1.27;;
12476;SDS011;6303;51.504;6.300;2023-04-03T00:48:48;1.75;;;1.45;;
12476;SDS011;6303;51.504;6.300;2023-04-03T00:51:16;1.40;;;1.30;;
12476;SDS011;6303;51.504;6.300;2023-04-03T00:53:47;1.67;;;1.58;;
12476;SDS011;6303;51.504;6.300;2023-04-03T00:56:16;1.55;;;1.45;;
12476;SDS011;6303;51.504;6.300;2023-04-03T00:58:48;1.65;;;1.55;;
12476;SDS011;6303;51.504;6.300;2023-04-03T01:01:19;1.65;;;1.40;;
12476;SDS011;6303;51.504;6.300;2023-04-03T01:03:49;1.48;;;1.38;;
12476;SDS011;6303;51.504;6.300;2023-04-03T01:06:17;1.60;;;1.50;;
12476;SDS011;6303;51.504;6.300;2023-04-03T01:08:49;1.58;;;1.48;;
12476;SDS011;6303;51.504;6.300;2023-04-03T01:11:17;1.70;;;1.60;;
12476;SDS011;6303;51.504;6.300;2023-04-03T01:13:46;1.75;;;1.65;;
12476;SDS011;6303;51.504;6.300;2023-04-03T01:16:14;1.80;;;1.70;;
12476;SDS011;6303;51.504;6.300;2023-04-03T01:18:43;1.45;;;1.35;;
12476;SDS011;6303;51.504;6.300;2023-04-03T01:24:25;1.60;;;1.50;;
12476;SDS011;6303;51.504;6.300;2023-04-03T01:26:58;1.70;;;1.60;;
12476;SDS011;6303;51.504;6.300;2023-04-03T01:29:25;1.50;;;1.40;;
12476;SDS011;6303;51.504;6.300;2023-04-03T01:31:53;1.55;;;1.45;;
12476;SDS011;6303;51.504;6.300;2023-04-03T01:34:22;1.70;;;1.60;;
12476;SDS011;6303;51.504;6.300;2023-04-03T01:36:51;1.80;;;1.70;;
12476;SDS011;6303;51.504;6.300;2023-04-03T01:39:19;1.67;;;1.58;;
12476;SDS011;6303;51.504;6.300;2023-04-03T01:41:47;1.45;;;1.35;;
12476;SDS011;6303;51.504;6.300;2023-04-03T01:44:29;1.70;;;1.60;;
12476;SDS011;6303;51.504;6.300;2023-04-03T01:46:58;1.60;;;1.50;;
12476;SDS011;6303;51.504;6.300;2023-04-03T01:49:27;1.70;;;1.60;;
12476;SDS011;6303;51.504;6.300;2023-04-03T01:51:54;1.50;;;1.40;;
12476;SDS011;6303;51.504;6.300;2023-04-03T01:54:21;1.50;;;1.40;;
12476;SDS011;6303;51.504;6.300;2023-04-03T01:56:48;1.60;;;1.50;;
12476;SDS011;6303;51.504;6.300;2023-04-03T01:59:17;1.50;;;1.40;;
12476;SDS011;6303;51.504;6.300;2023-04-03T02:01:44;1.80;;;1.58;;
12476;SDS011;6303;51.504;6.300;2023-04-03T02:04:13;1.60;;;1.50;;
12476;SDS011;6303;51.504;6.300;2023-04-03T02:06:40;1.80;;;1.70;;
12476;SDS011;6303;51.504;6.300;2023-04-03T02:09:07;2.28;;;1.63;;
12476;SDS011;6303;51.504;6.300;2023-04-03T02:11:34;1.73;;;1.63;;
12476;SDS011;6303;51.504;6.300;2023-04-03T02:14:01;1.50;;;1.40;;
12476;SDS011;6303;51.504;6.300;2023-04-03T02:16:29;1.58;;;1.38;;
12476;SDS011;6303;51.504;6.300;2023-04-03T02:18:56;1.65;;;1.55;;
12476;SDS011;6303;51.504;6.300;2023-04-03T02:21:24;1.65;;;1.55;;
12476;SDS011;6303;51.504;6.300;2023-04-03T02:23:52;1.60;;;1.50;;
12476;SDS011;6303;51.504;6.300;2023-04-03T02:26:20;1.52;;;1.42;;
12476;SDS011;6303;51.504;6.300;2023-04-03T02:28:47;2.17;;;1.50;;
12476;SDS011;6303;51.504;6.300;2023-04-03T02:31:14;1.67;;;1.58;;
12476;SDS011;6303;51.504;6.300;2023-04-03T02:33:43;1.70;;;1.60;;
12476;SDS011;6303;51.504;6.300;2023-04-03T02:36:13;1.70;;;1.60;;
12476;SDS011;6303;51.504;6.300;2023-04-03T02:38:44;1.50;;;1.40;;
12476;SDS011;6303;51.504;6.300;2023-04-03T02:41:12;1.45;;;1.35;;
12476;SDS011;6303;51.504;6.300;2023-04-03T02:43:39;1.60;;;1.50;;
12476;SDS011;6303;51.504;6.300;2023-04-03T02:46:07;1.58;;;1.42;;
12476;SDS011;6303;51.504;6.300;2023-04-03T02:48:36;1.33;;;1.23;;
12476;SDS011;6303;51.504;6.300;2023-04-03T02:51:03;2.38;;;1.73;;
12476;SDS011;6303;51.504;6.300;2023-04-03T02:53:31;1.40;;;1.30;;
12476;SDS011;6303;51.504;6.300;2023-04-03T02:56:05;1.40;;;1.30;;
12476;SDS011;6303;51.504;6.300;2023-04-03T02:58:32;1.65;;;1.55;;
12476;SDS011;6303;51.504;6.300;2023-04-03T03:01:00;1.60;;;1.50;;
12476;SDS011;6303;51.504;6.300;2023-04-03T03:03:27;1.50;;;1.40;;
12476;SDS011;6303;51.504;6.300;2023-04-03T03:06:00;1.45;;;1.35;;
12476;SDS011;6303;51.504;6.300;2023-04-03T03:08:28;1.52;;;1.42;;
12476;SDS011;6303;51.504;6.300;2023-04-03T03:10:56;1.83;;;1.60;;
12476;SDS011;6303;51.504;6.300;2023-04-03T03:13:24;1.58;;;1.33;;
12476;SDS011;6303;51.504;6.300;2023-04-03T03:15:51;1.60;;;1.50;;
12476;SDS011;6303;51.504;6.300;2023-04-03T03:18:18;1.98;;;1.40;;
12476;SDS011;6303;51.504;6.300;2023-04-03T03:20:50;1.50;;;1.40;;
12476;SDS011;6303;51.504;6.300;2023-04-03T03:23:18;1.50;;;1.38;;
12476;SDS011;6303;51.504;6.300;2023-04-03T03:25:46;1.55;;;1.45;;
12476;SDS011;6303;51.504;6.300;2023-04-03T03:28:13;1.30;;;1.20;;
12476;SDS011;6303;51.504;6.300;2023-04-03T03:30:41;1.50;;;1.40;;
12476;SDS011;6303;51.504;6.300;2023-04-03T03:33:08;1.40;;;1.30;;
12476;SDS011;6303;51.504;6.300;2023-04-03T03:35:35;1.50;;;1.40;;
12476;SDS011;6303;51.504;6.300;2023-04-03T03:38:02;1.60;;;1.50;;
12476;SDS011;6303;51.504;6.300;2023-04-03T03:40:30;1.60;;;1.50;;
12476;SDS011;6303;51.504;6.300;2023-04-03T03:42:57;1.42;;;1.33;;
12476;SDS011;6303;51.504;6.300;2023-04-03T03:45:25;1.67;;;1.58;;
12476;SDS011;6303;51.504;6.300;2023-04-03T03:47:53;1.77;;;1.58;;
12476;SDS011;6303;51.504;6.300;2023-04-03T03:50:20;1.30;;;1.20;;
12476;SDS011;6303;51.504;6.300;2023-04-03T03:52:48;1.40;;;1.20;;
12476;SDS011;6303;51.504;6.300;2023-04-03T03:55:16;1.52;;;1.42;;
12476;SDS011;6303;51.504;6.300;2023-04-03T03:57:46;1.20;;;1.20;;
12476;SDS011;6303;51.504;6.300;2023-04-03T04:00:14;2.03;;;1.40;;
12476;SDS011;6303;51.504;6.300;2023-04-03T04:02:45;1.48;;;1.38;;
12476;SDS011;6303;51.504;6.300;2023-04-03T04:05:17;1.52;;;1.20;;
12476;SDS011;6303;51.504;6.300;2023-04-03T04:07:45;1.70;;;1.38;;
12476;SDS011;6303;51.504;6.300;2023-04-03T04:10:12;1.60;;;1.23;;
12476;SDS011;6303;51.504;6.300;2023-04-03T04:12:40;1.40;;;1.30;;
12476;SDS011;6303;51.504;6.300;2023-04-03T04:15:07;1.50;;;1.40;;
12476;SDS011;6303;51.504;6.300;2023-04-03T04:17:35;1.50;;;1.30;;
12476;SDS011;6303;51.504;6.300;2023-04-03T04:20:05;1.55;;;1.40;;
12476;SDS011;6303;51.504;6.300;2023-04-03T04:22:35;1.40;;;1.20;;
12476;SDS011;6303;51.504;6.300;2023-04-03T04:25:05;1.40;;;1.30;;
12476;SDS011;6303;51.504;6.300;2023-04-03T04:27:34;1.23;;;1.13;;
12476;SDS011;6303;51.504;6.300;2023-04-03T04:30:02;1.40;;;1.30;;
12476;SDS011;6303;51.504;6.300;2023-04-03T04:32:31;1.30;;;1.20;;
12476;SDS011;6303;51.504;6.300;2023-04-03T04:34:58;1.42;;;1.33;;
12476;SDS011;6303;51.504;6.300;2023-04-03T04:37:27;1.25;;;1.15;;
12476;SDS011;6303;51.504;6.300;2023-04-03T04:39:57;1.40;;;1.30;;
12476;SDS011;6303;51.504;6.300;2023-04-03T04:42:24;1.40;;;1.20;;
12476;SDS011;6303;51.504;6.300;2023-04-03T04:44:51;1.50;;;1.40;;
12476;SDS011;6303;51.504;6.300;2023-04-03T04:47:18;1.20;;;1.10;;
12476;SDS011;6303;51.504;6.300;2023-04-03T04:49:46;1.17;;;1.10;;
12476;SDS011;6303;51.504;6.300;2023-04-03T04:52:14;1.30;;;1.20;;
12476;SDS011;6303;51.504;6.300;2023-04-03T04:54:41;1.75;;;1.30;;
12476;SDS011;6303;51.504;6.300;2023-04-03T04:57:10;1.33;;;1.23;;
12476;SDS011;6303;51.504;6.300;2023-04-03T04:59:38;1.15;;;1.15;;
12476;SDS011;6303;51.504;6.300;2023-04-03T05:02:06;1.30;;;1.20;;
12476;SDS011;6303;51.504;6.300;2023-04-03T05:04:34;1.52;;;1.30;;
12476;SDS011;6303;51.504;6.300;2023-04-03T05:07:07;1.05;;;1.02;;
12476;SDS011;6303;51.504;6.300;2023-04-03T05:09:36;1.38;;;1.20;;
12476;SDS011;6303;51.504;6.300;2023-04-03T05:12:04;1.30;;;1.20;;
12476;SDS011;6303;51.504;6.300;2023-04-03T05:14:39;1.55;;;1.30;;
12476;SDS011;6303;51.504;6.300;2023-04-03T05:17:08;1.50;;;1.20;;
12476;SDS011;6303;51.504;6.300;2023-04-03T05:19:39;1.40;;;1.10;;
12476;SDS011;6303;51.504;6.300;2023-04-03T05:22:07;1.38;;;1.10;;
12476;SDS011;6303;51.504;6.300;2023-04-03T05:24:35;1.20;;;1.10;;
12476;SDS011;6303;51.504;6.300;2023-04-03T05:27:03;1.10;;;1.10;;
12476;SDS011;6303;51.504;6.300;2023-04-03T05:29:33;1.17;;;1.08;;
12476;SDS011;6303;51.504;6.300;2023-04-03T05:32:03;1.08;;;0.98;;
12476;SDS011;6303;51.504;6.300;2023-04-03T05:34:31;1.40;;;1.20;;
12476;SDS011;6303;51.504;6.300;2023-04-03T05:36:59;1.23;;;1.10;;
12476;SDS011;6303;51.504;6.300;2023-04-03T05:39:28;1.27;;;1.17;;
12476;SDS011;6303;51.504;6.300;2023-04-03T05:41:57;1.30;;;1.17;;
12476;SDS011;6303;51.504;6.300;2023-04-03T05:44:24;1.30;;;1.20;;
12476;SDS011;6303;51.504;6.300;2023-04-03T05:46:53;1.35;;;1.15;;
12476;SDS011;6303;51.504;6.300;2023-04-03T05:49:21;2.20;;;1.20;;
12476;SDS011;6303;51.504;6.300;2023-04-03T05:51:48;1.55;;;1.30;;
12476;SDS011;6303;51.504;6.300;2023-04-03T05:54:23;1.45;;;1.23;;
12476;SDS011;6303;51.504;6.300;2023-04-03T05:56:56;1.35;;;1.15;;
12476;SDS011;6303;51.504;6.300;2023-04-03T05:59:24;1.00;;;1.00;;
12476;SDS011;6303;51.504;6.300;2023-04-03T06:01:55;2.05;;;1.10;;
12476;SDS011;6303;51.504;6.300;2023-04-03T06:04:24;1.20;;;1.10;;
12476;SDS011;6303;51.504;6.300;2023-04-03T06:06:52;1.38;;;1.27;;
12476;SDS011;6303;51.504;6.300;2023-04-03T06:09:20;1.27;;;1.17;;
12476;SDS011;6303;51.504;6.300;2023-04-03T06:11:50;1.20;;;1.10;;
12476;SDS011;6303;51.504;6.300;2023-04-03T06:14:19;1.33;;;1.23;;
12476;SDS011;6303;51.504;6.300;2023-04-03T06:16:46;1.17;;;1.05;;
12476;SDS011;6303;51.504;6.300;2023-04-03T06:19:14;1.13;;;1.02;;
12476;SDS011;6303;51.504;6.300;2023-04-03T06:21:47;0.95;;;0.95;;
12476;SDS011;6303;51.504;6.300;2023-04-03T06:24:16;1.20;;;1.20;;
12476;SDS011;6303;51.504;6.300;2023-04-03T06:26:45;1.40;;;1.20;;
12476;SDS011;6303;51.504;6.300;2023-04-03T06:29:12;1.00;;;1.00;;
12476;SDS011;6303;51.504;6.300;2023-04-03T06:31:39;1.65;;;1.27;;
12476;SDS011;6303;51.504;6.300;2023-04-03T06:34:06;1.17;;;1.08;;
12476;SDS011;6303;51.504;6.300;2023-04-03T06:36:33;1.00;;;1.00;;
12476;SDS011;6303;51.504;6.300;2023-04-03T06:39:02;1.30;;;1.20;;
12476;SDS011;6303;51.504;6.300;2023-04-03T06:41:29;2.03;;;1.33;;
12476;SDS011;6303;51.504;6.300;2023-04-03T06:43:56;1.20;;;1.10;;
12476;SDS011;6303;51.504;6.300;2023-04-03T06:46:24;1.10;;;1.00;;
12476;SDS011;6303;51.504;6.300;2023-04-03T06:48:52;1.42;;;1.10;;
12476;SDS011;6303;51.504;6.300;2023-04-03T06:51:21;1.10;;;1.00;;
12476;SDS011;6303;51.504;6.300;2023-04-03T06:53:50;1.20;;;1.10;;
12476;SDS011;6303;51.504;6.300;2023-04-03T06:56:19;1.42;;;1.15;;
12476;SDS011;6303;51.504;6.300;2023-04-03T06:58:47;1.20;;;1.10;;
12476;SDS011;6303;51.504;6.300;2023-04-03T07:01:15;1.10;;;1.00;;
12476;SDS011;6303;51.504;6.300;2023-04-03T07:03:44;0.90;;;0.90;;
12476;SDS011;6303;51.504;6.300;2023-04-03T07:06:13;1.92;;;1.10;;
12476;SDS011;6303;51.504;6.300;2023-04-03T07:08:41;1.20;;;1.10;;
12476;SDS011;6303;51.504;6.300;2023-04-03T07:11:09;1.95;;;1.20;;
12476;SDS011;6303;51.504;6.300;2023-04-03T07:13:38;1.25;;;1.15;;
12476;SDS011;6303;51.504;6.300;2023-04-03T07:16:06;1.35;;;1.23;;
12476;SDS011;6303;51.504;6.300;2023-04-03T07:18:34;1.30;;;1.20;;
12476;SDS011;6303;51.504;6.300;2023-04-03T07:21:01;1.10;;;1.00;;
12476;SDS011;6303;51.504;6.300;2023-04-03T07:23:29;1.45;;;1.00;;
12476;SDS011;6303;51.504;6.300;2023-04-03T07:25:56;1.23;;;1.10;;
12476;SDS011;6303;51.504;6.300;2023-04-03T07:28:24;1.20;;;1.10;;
12476;SDS011;6303;51.504;6.300;2023-04-03T07:30:53;1.23;;;1.13;;
12476;SDS011;6303;51.504;6.300;2023-04-03T07:33:26;2.00;;;1.13;;
12476;SDS011;6303;51.504;6.300;2023-04-03T07:35:53;1.38;;;1.27;;
12476;SDS011;6303;51.504;6.300;2023-04-03T07:38:20;1.13;;;1.02;;
12476;SDS011;6303;51.504;6.300;2023-04-03T07:40:48;1.10;;;1.00;;
12476;SDS011;6303;51.504;6.300;2023-04-03T07:43:18;1.20;;;1.10;;
12476;SDS011;6303;51.504;6.300;2023-04-03T07:45:46;1.60;;;1.40;;
12476;SDS011;6303;51.504;6.300;2023-04-03T07:48:17;1.40;;;1.30;;
12476;SDS011;6303;51.504;6.300;2023-04-03T07:50:46;1.60;;;1.30;;
12476;SDS011;6303;51.504;6.300;2023-04-03T07:53:13;1.20;;;1.10;;
12476;SDS011;6303;51.504;6.300;2023-04-03T07:55:40;1.30;;;1.20;;
12476;SDS011;6303;51.504;6.300;2023-04-03T07:58:09;1.42;;;1.25;;
12476;SDS011;6303;51.504;6.300;2023-04-03T08:00:37;1.40;;;1.30;;
12476;SDS011;6303;51.504;6.300;2023-04-03T08:03:04;1.23;;;1.13;;
12476;SDS011;6303;51.504;6.300;2023-04-03T08:05:34;1.40;;;1.30;;
12476;SDS011;6303;51.504;6.300;2023-04-03T08:08:03;1.63;;;1.30;;
12476;SDS011;6303;51.504;6.300;2023-04-03T08:10:31;1.80;;;1.20;;
12476;SDS011;6303;51.504;6.300;2023-04-03T08:12:58;1.42;;;1.20;;
12476;SDS011;6303;51.504;6.300;2023-04-03T08:15:25;2.28;;;1.40;;
12476;SDS011;6303;51.504;6.300;2023-04-03T08:17:52;1.30;;;1.20;;
12476;SDS011;6303;51.504;6.300;2023-04-03T08:20:20;1.00;;;1.00;;
12476;SDS011;6303;51.504;6.300;2023-04-03T08:22:49;1.10;;;1.10;;
12476;SDS011;6303;51.504;6.300;2023-04-03T08:25:16;1.20;;;1.10;;
12476;SDS011;6303;51.504;6.300;2023-04-03T08:27:43;1.90;;;1.23;;
12476;SDS011;6303;51.504;6.300;2023-04-03T08:30:11;2.05;;;1.20;;
12476;SDS011;6303;51.504;6.300;2023-04-03T08:32:38;1.20;;;1.08;;
12476;SDS011;6303;51.504;6.300;2023-04-03T08:35:07;1.35;;;1.00;;
12476;SDS011;6303;51.504;6.300;2023-04-03T08:37:34;1.30;;;1.20;;
12476;SDS011;6303;51.504;6.300;2023-04-03T08:40:04;1.23;;;1.05;;
12476;SDS011;6303;51.504;6.300;2023-04-03T08:42:36;1.27;;;1.17;;
12476;SDS011;6303;51.504;6.300;2023-04-03T08:45:13;1.77;;;1.20;;
12476;SDS011;6303;51.504;6.300;2023-04-03T08:47:43;1.63;;;1.20;;
12476;SDS011;6303;51.504;6.300;2023-04-03T08:50:13;1.40;;;1.17;;
12476;SDS011;6303;51.504;6.300;2023-04-03T08:52:44;1.08;;;1.00;;
12476;SDS011;6303;51.504;6.300;2023-04-03T08:55:18;1.25;;;1.10;;
12476;SDS011;6303;51.504;6.300;2023-04-03T08:57:50;1.17;;;1.08;;
12476;SDS011;6303;51.504;6.300;2023-04-03T09:00:24;1.42;;;1.10;;
12476;SDS011;6303;51.504;6.300;2023-04-03T09:02:55;1.20;;;1.10;;
12476;SDS011;6303;51.504;6.300;2023-04-03T09:05:28;1.48;;;1.20;;
12476;SDS011;6303;51.504;6.300;2023-04-03T09:08:04;1.13;;;1.05;;
12476;SDS011;6303;51.504;6.300;2023-04-03T09:10:39;1.25;;;1.05;;
12476;SDS011;6303;51.504;6.300;2023-04-03T09:13:08;1.42;;;1.20;;
12476;SDS011;6303;51.504;6.300;2023-04-03T09:15:46;1.25;;;1.15;;
12476;SDS011;6303;51.504;6.300;2023-04-03T09:18:13;1.23;;;1.13;;
12476;SDS011;6303;51.504;6.300;2023-04-03T09:20:46;1.25;;;1.10;;
12476;SDS011;6303;51.504;6.300;2023-04-03T09:23:24;1.67;;;1.23;;
12476;SDS011;6303;51.504;6.300;2023-04-03T09:26:00;1.30;;;1.20;;
12476;SDS011;6303;51.504;6.300;2023-04-03T09:28:30;1.27;;;1.10;;
12476;SDS011;6303;51.504;6.300;2023-04-03T09:31:00;1.67;;;1.33;;
12476;SDS011;6303;51.504;6.300;2023-04-03T09:33:28;1.17;;;1.10;;
12476;SDS011;6303;51.504;6.300;2023-04-03T09:35:56;1.20;;;1.10;;
12476;SDS011;6303;51.504;6.300;2023-04-03T09:38:23;1.48;;;1.10;;
12476;SDS011;6303;51.504;6.300;2023-04-03T09:40:51;1.00;;;0.98;;
12476;SDS011;6303;51.504;6.300;2023-04-03T09:43:33;1.30;;;1.20;;
12476;SDS011;6303;51.504;6.300;2023-04-03T09:49:00;1.20;;;1.10;;
12476;SDS011;6303;51.504;6.300;2023-04-03T09:51:28;1.55;;;1.27;;
12476;SDS011;6303;51.504;6.300;2023-04-03T09:53:56;1.27;;;1.20;;
12476;SDS011;6303;51.504;6.300;2023-04-03T09:56:26;0.93;;;0.93;;
12476;SDS011;6303;51.504;6.300;2023-04-03T09:59:06;1.25;;;1.10;;
12476;SDS011;6303;51.504;6.300;2023-04-03T10:01:42;1.05;;;1.00;;
12476;SDS011;6303;51.504;6.300;2023-04-03T10:04:22;1.52;;;1.05;;
12476;SDS011;6303;51.504;6.300;2023-04-03T10:06:50;2.38;;;0.90;;
12476;SDS011;6303;51.504;6.300;2023-04-03T10:09:19;0.90;;;0.90;;
12476;SDS011;6303;51.504;6.300;2023-04-03T10:12:03;1.10;;;1.10;;
12476;SDS011;6303;51.504;6.300;2023-04-03T10:14:33;0.82;;;0.82;;
12476;SDS011;6303;51.504;6.300;2023-04-03T10:17:09;0.90;;;0.90;;
12476;SDS011;6303;51.504;6.300;2023-04-03T10:19:45;1.20;;;1.10;;
12476;SDS011;6303;51.504;6.300;2023-04-03T10:22:19;1.10;;;1.00;;
12476;SDS011;6303;51.504;6.300;2023-04-03T10:24:54;0.80;;;0.80;;
12476;SDS011;6303;51.504;6.300;2023-04-03T10:27:42;0.80;;;0.80;;
12476;SDS011;6303;51.504;6.300;2023-04-03T10:30:25;1.20;;;0.90;;
12476;SDS011;6303;51.504;6.300;2023-04-03T10:33:05;0.90;;;0.90;;
12476;SDS011;6303;51.504;6.300;2023-04-03T10:35:44;0.82;;;0.82;;
12476;SDS011;6303;51.504;6.300;2023-04-03T10:38:22;0.80;;;0.80;;
12476;SDS011;6303;51.504;6.300;2023-04-03T10:41:00;0.95;;;0.90;;
12476;SDS011;6303;51.504;6.300;2023-04-03T10:43:36;1.00;;;0.90;;
12476;SDS011;6303;51.504;6.300;2023-04-03T10:46:09;1.02;;;0.80;;
12476;SDS011;6303;51.504;6.300;2023-04-03T10:48:48;1.00;;;1.00;;
12476;SDS011;6303;51.504;6.300;2023-04-03T10:51:27;1.33;;;0.90;;
12476;SDS011;6303;51.504;6.300;2023-04-03T10:54:00;0.90;;;0.90;;
12476;SDS011;6303;51.504;6.300;2023-04-03T10:56:33;0.93;;;0.93;;
12476;SDS011;6303;51.504;6.300;2023-04-03T10:59:12;0.77;;;0.77;;
12476;SDS011;6303;51.504;6.300;2023-04-03T11:01:43;0.95;;;0.90;;
12476;SDS011;6303;51.504;6.300;2023-04-03T11:04:12;0.98;;;0.85;;
12476;SDS011;6303;51.504;6.300;2023-04-03T11:06:42;0.85;;;0.85;;
12476;SDS011;6303;51.504;6.300;2023-04-03T11:09:16;0.90;;;0.90;;
12476;SDS011;6303;51.504;6.300;2023-04-03T11:11:48;0.80;;;0.80;;
12476;SDS011;6303;51.504;6.300;2023-04-03T11:14:23;1.08;;;0.90;;
12476;SDS011;6303;51.504;6.300;2023-04-03T11:16:55;0.80;;;0.80;;
12476;SDS011;6303;51.504;6.300;2023-04-03T11:19:33;0.90;;;0.90;;
12476;SDS011;6303;51.504;6.300;2023-04-03T11:22:05;0.75;;;0.75;;
12476;SDS011;6303;51.504;6.300;2023-04-03T11:24:38;1.42;;;1.10;;
12476;SDS011;6303;51.504;6.300;2023-04-03T11:27:09;1.00;;;1.00;;
12476;SDS011;6303;51.504;6.300;2023-04-03T11:29:43;1.27;;;1.05;;
12476;SDS011;6303;51.504;6.300;2023-04-03T11:32:17;0.70;;;0.70;;
12476;SDS011;6303;51.504;6.300;2023-04-03T11:34:57;0.85;;;0.80;;
12476;SDS011;6303;51.504;6.300;2023-04-03T11:37:28;0.80;;;0.80;;
12476;SDS011;6303;51.504;6.300;2023-04-03T11:40:02;0.90;;;0.90;;
12476;SDS011;6303;51.504;6.300;2023-04-03T11:42:33;0.80;;;0.80;;
12476;SDS011;6303;51.504;6.300;2023-04-03T11:45:26;0.80;;;0.80;;
12476;SDS011;6303;51.504;6.300;2023-04-03T11:48:00;1.67;;;0.90;;
12476;SDS011;6303;51.504;6.300;2023-04-03T11:50:44;0.70;;;0.70;;
12476;SDS011;6303;51.504;6.300;2023-04-03T11:53:28;0.70;;;0.70;;
12476;SDS011;6303;51.504;6.300;2023-04-03T11:56:06;1.05;;;0.80;;
12476;SDS011;6303;51.504;6.300;2023-04-03T11:59:15;0.90;;;0.90;;
12476;SDS011;6303;51.504;6.300;2023-04-03T12:01:50;0.80;;;0.80;;
12476;SDS011;6303;51.504;6.300;2023-04-03T12:04:19;0.80;;;0.80;;
12476;SDS011;6303;51.504;6.300;2023-04-03T12:06:53;0.70;;;0.70;;
12476;SDS011;6303;51.504;6.300;2023-04-03T12:09:27;0.90;;;0.90;;
12476;SDS011;6303;51.504;6.300;2023-04-03T12:12:01;0.70;;;0.70;;
12476;SDS011;6303;51.504;6.300;2023-04-03T12:14:43;0.80;;;0.80;;
12476;SDS011;6303;51.504;6.300;2023-04-03T12:17:15;0.90;;;0.90;;
12476;SDS011;6303;51.504;6.300;2023-04-03T12:19:49;0.60;;;0.60;;
12476;SDS011;6303;51.504;6.300;2023-04-03T12:22:17;0.65;;;0.65;;
12476;SDS011;6303;51.504;6.300;2023-04-03T12:24:46;0.73;;;0.73;;
12476;SDS011;6303;51.504;6.300;2023-04-03T12:30:06;0.68;;;0.68;;
12476;SDS011;6303;51.504;6.300;2023-04-03T12:32:48;0.70;;;0.70;;
12476;SDS011;6303;51.504;6.300;2023-04-03T12:35:31;0.80;;;0.80;;
12476;SDS011;6303;51.504;6.300;2023-04-03T12:38:17;0.90;;;0.85;;
12476;SDS011;6303;51.504;6.300;2023-04-03T12:40:57;0.80;;;0.80;;
12476;SDS011;6303;51.504;6.300;2023-04-03T12:43:34;0.85;;;0.77;;
12476;SDS011;6303;51.504;6.300;2023-04-03T12:46:11;0.77;;;0.77;;
12476;SDS011;6303;51.504;6.300;2023-04-03T12:48:48;0.80;;;0.80;;
12476;SDS011;6303;51.504;6.300;2023-04-03T12:51:19;1.10;;;0.70;;
12476;SDS011;6303;51.504;6.300;2023-04-03T12:53:51;1.25;;;0.80;;
12476;SDS011;6303;51.504;6.300;2023-04-03T12:56:24;0.80;;;0.80;;
12476;SDS011;6303;51.504;6.300;2023-04-03T12:58:53;0.73;;;0.70;;
12476;SDS011;6303;51.504;6.300;2023-04-03T13:01:23;0.88;;;0.88;;
12476;SDS011;6303;51.504;6.300;2023-04-03T13:03:54;0.70;;;0.70;;
12476;SDS011;6303;51.504;6.300;2023-04-03T13:06:23;0.80;;;0.80;;
12476;SDS011;6303;51.504;6.300;2023-04-03T13:08:54;0.68;;;0.68;;
12476;SDS011;6303;51.504;6.300;2023-04-03T13:11:23;0.68;;;0.68;;
12476;SDS011;6303;51.504;6.300;2023-04-03T13:13:55;0.85;;;0.85;;
12476;SDS011;6303;51.504;6.300;2023-04-03T13:16:23;0.80;;;0.80;;
12476;SDS011;6303;51.504;6.300;2023-04-03T13:18:53;0.70;;;0.70;;
12476;SDS011;6303;51.504;6.300;2023-04-03T13:21:21;0.70;;;0.70;;
12476;SDS011;6303;51.504;6.300;2023-04-03T13:23:51;0.60;;;0.60;;
12476;SDS011;6303;51.504;6.300;2023-04-03T13:26:22;0.85;;;0.70;;
12476;SDS011;6303;51.504;6.300;2023-04-03T13:28:51;0.70;;;0.70;;
12476;SDS011;6303;51.504;6.300;2023-04-03T13:31:19;0.80;;;0.80;;
12476;SDS011;6303;51.504;6.300;2023-04-03T13:33:57;0.70;;;0.70;;
12476;SDS011;6303;51.504;6.300;2023-04-03T13:36:29;0.70;;;0.70;;
12476;SDS011;6303;51.504;6.300;2023-04-03T13:39:00;0.75;;;0.60;;
12476;SDS011;6303;51.504;6.300;2023-04-03T13:41:31;1.13;;;0.70;;
12476;SDS011;6303;51.504;6.300;2023-04-03T13:44:14;1.23;;;0.70;;
12476;SDS011;6303;51.504;6.300;2023-04-03T13:46:43;0.80;;;0.80;;
12476;SDS011;6303;51.504;6.300;2023-04-03T13:49:19;0.80;;;0.80;;
12476;SDS011;6303;51.504;6.300;2023-04-03T13:51:48;0.70;;;0.70;;
12476;SDS011;6303;51.504;6.300;2023-04-03T13:54:18;1.08;;;0.70;;
12476;SDS011;6303;51.504;6.300;2023-04-03T13:56:52;0.65;;;0.65;;
12476;SDS011;6303;51.504;6.300;2023-04-03T13:59:21;0.77;;;0.68;;
12476;SDS011;6303;51.504;6.300;2023-04-03T14:01:51;0.90;;;0.80;;
12476;SDS011;6303;51.504;6.300;2023-04-03T14:04:22;0.57;;;0.57;;
12476;SDS011;6303;51.504;6.300;2023-04-03T14:06:51;1.08;;;0.60;;
12476;SDS011;6303;51.504;6.300;2023-04-03T14:09:19;0.77;;;0.77;;
12476;SDS011;6303;51.504;6.300;2023-04-03T14:11:48;0.70;;;0.70;;
12476;SDS011;6303;51.504;6.300;2023-04-03T14:14:19;0.68;;;0.65;;
12476;SDS011;6303;51.504;6.300;2023-04-03T14:16:51;0.77;;;0.70;;
12476;SDS011;6303;51.504;6.300;2023-04-03T14:19:21;0.95;;;0.75;;
12476;SDS011;6303;51.504;6.300;2023-04-03T14:21:52;0.70;;;0.70;;
12476;SDS011;6303;51.504;6.300;2023-04-03T14:24:19;0.63;;;0.60;;
12476;SDS011;6303;51.504;6.300;2023-04-03T14:26:47;1.17;;;0.75;;
12476;SDS011;6303;51.504;6.300;2023-04-03T14:29:15;0.77;;;0.77;;
12476;SDS011;6303;51.504;6.300;2023-04-03T14:31:43;0.77;;;0.70;;
12476;SDS011;6303;51.504;6.300;2023-04-03T14:34:11;0.80;;;0.80;;
12476;SDS011;6303;51.504;6.300;2023-04-03T14:36:40;0.70;;;0.70;;
12476;SDS011;6303;51.504;6.300;2023-04-03T14:39:10;0.73;;;0.73;;
12476;SDS011;6303;51.504;6.300;2023-04-03T14:41:42;0.60;;;0.60;;
12476;SDS011;6303;51.504;6.300;2023-04-03T14:44:10;0.93;;;0.70;;
12476;SDS011;6303;51.504;6.300;2023-04-03T14:46:38;0.70;;;0.65;;
12476;SDS011;6303;51.504;6.300;2023-04-03T14:49:09;0.50;;;0.50;;
12476;SDS011;6303;51.504;6.300;2023-04-03T14:51:42;0.82;;;0.70;;
12476;SDS011;6303;51.504;6.300;2023-04-03T14:54:11;0.75;;;0.75;;
12476;SDS011;6303;51.504;6.300;2023-04-03T14:56:40;0.70;;;0.70;;
12476;SDS011;6303;51.504;6.300;2023-04-03T14:59:09;0.60;;;0.60;;
12476;SDS011;6303;51.504;6.300;2023-04-03T15:01:38;0.60;;;0.60;;
12476;SDS011;6303;51.504;6.300;2023-04-03T15:04:09;0.63;;;0.60;;
12476;SDS011;6303;51.504;6.300;2023-04-03T15:06:38;1.05;;;0.70;;
12476;SDS011;6303;51.504;6.300;2023-04-03T15:09:08;0.82;;;0.70;;
12476;SDS011;6303;51.504;6.300;2023-04-03T15:11:44;0.75;;;0.70;;
12476;SDS011;6303;51.504;6.300;2023-04-03T15:14:11;0.70;;;0.70;;
12476;SDS011;6303;51.504;6.300;2023-04-03T15:16:38;0.60;;;0.60;;
12476;SDS011;6303;51.504;6.300;2023-04-03T15:19:05;2.45;;;0.90;;
12476;SDS011;6303;51.504;6.300;2023-04-03T15:21:32;0.70;;;0.70;;
12476;SDS011;6303;51.504;6.300;2023-04-03T15:23:59;0.80;;;0.80;;
12476;SDS011;6303;51.504;6.300;2023-04-03T15:26:28;0.70;;;0.70;;
12476;SDS011;6303;51.504;6.300;2023-04-03T15:28:56;1.23;;;0.90;;